createdAt,value
2019-04-28T00:01:11.764Z,6.90
2019-04-28T00:03:39.555Z,7.00
2019-04-28T00:06:07.287Z,7.10
2019-04-28T00:08:34.999Z,7.20
2019-04-28T00:11:03.540Z,7.00
2019-04-28T00:13:33.604Z,7.00
2019-04-28T00:16:02.494Z,7.00
2019-04-28T00:18:31.684Z,7.10
2019-04-28T00:21:18.073Z,6.90
2019-04-28T00:23:56.041Z,6.90
2019-04-28T00:26:35.000Z,6.90
2019-04-28T00:29:03.146Z,6.90
2019-04-28T00:31:31.282Z,7.00
2019-04-28T00:34:00.826Z,7.10
2019-04-28T00:36:31.142Z,7.10
2019-04-28T00:39:02.287Z,7.30
2019-04-28T00:41:30.977Z,7.30
2019-04-28T00:44:01.995Z,7.30
2019-04-28T00:46:33.488Z,7.40
2019-04-28T00:49:02.239Z,7.50
2019-04-28T00:51:31.364Z,7.40
2019-04-28T00:56:28.572Z,7.60
2019-04-28T00:58:56.444Z,7.70
2019-04-28T01:03:59.517Z,7.70
2019-04-28T01:06:29.096Z,7.70
2019-04-28T01:09:01.366Z,7.70
2019-04-28T01:11:31.194Z,7.80
2019-04-28T01:13:59.270Z,7.90
2019-04-28T01:16:40.777Z,8.00
2019-04-28T01:19:32.946Z,7.90
2019-04-28T01:22:17.169Z,8.10
2019-04-28T01:24:45.237Z,8.10
2019-04-28T01:27:41.854Z,8.20
2019-04-28T01:30:17.120Z,8.10
2019-04-28T01:32:51.910Z,8.10
2019-04-28T01:35:21.070Z,8.30
2019-04-28T01:37:50.537Z,8.20
2019-04-28T01:40:20.559Z,8.30
2019-04-28T01:42:49.970Z,8.30
2019-04-28T01:45:20.564Z,8.20
2019-04-28T01:47:50.362Z,8.10
2019-04-28T01:50:20.279Z,8.10
2019-04-28T01:52:49.709Z,8.20
2019-04-28T01:55:19.806Z,8.30
2019-04-28T02:00:22.881Z,8.50
2019-04-28T02:05:15.773Z,8.60
2019-04-28T02:07:43.869Z,8.80
2019-04-28T02:10:12.684Z,8.90
2019-04-28T02:12:40.585Z,9.10
2019-04-28T02:15:10.478Z,9.20
2019-04-28T02:17:40.158Z,9.30
2019-04-28T02:20:10.246Z,9.20
2019-04-28T02:27:39.931Z,9.10
2019-04-28T02:30:11.376Z,9.00
2019-04-28T02:32:40.776Z,8.80
2019-04-28T02:35:10.429Z,8.70
2019-04-28T02:37:40.365Z,8.70
2019-04-28T02:40:10.184Z,8.70
2019-04-28T02:42:37.015Z,8.70
2019-04-28T02:45:05.539Z,8.70
2019-04-28T02:50:11.194Z,8.60
2019-04-28T02:55:31.624Z,8.50
2019-04-28T03:00:31.617Z,8.40
2019-04-28T03:03:01.057Z,8.40
2019-04-28T03:05:30.319Z,8.30
2019-04-28T03:08:00.821Z,8.10
2019-04-28T03:10:30.721Z,8.10
2019-04-28T03:12:57.644Z,8.10
2019-04-28T03:15:25.460Z,8.00
2019-04-28T03:17:53.424Z,8.10
2019-04-28T03:20:21.370Z,8.00
2019-04-28T03:22:51.024Z,7.90
2019-04-28T03:25:35.863Z,7.80
2019-04-28T03:28:21.548Z,7.80
2019-04-28T03:31:47.768Z,7.50
2019-04-28T03:36:17.816Z,7.70
2019-04-28T03:46:14.706Z,7.70
2019-04-28T03:48:42.680Z,7.70
2019-04-28T03:53:40.967Z,7.80
2019-04-28T03:56:11.419Z,7.80
2019-04-28T03:58:40.672Z,7.90
2019-04-28T04:01:10.451Z,8.10
2019-04-28T04:03:37.944Z,8.10
2019-04-28T04:06:05.774Z,8.30
2019-04-28T04:08:33.785Z,8.20
2019-04-28T04:11:31.066Z,8.30
2019-04-28T04:14:17.760Z,8.40
2019-04-28T04:16:57.300Z,8.50
2019-04-28T04:19:25.125Z,8.50
2019-04-28T04:21:53.138Z,8.40
2019-04-28T04:24:21.120Z,8.60
2019-04-28T04:26:50.546Z,8.60
2019-04-28T04:29:18.486Z,8.80
2019-04-28T04:34:14.910Z,8.80
2019-04-28T04:36:43.067Z,8.90
2019-04-28T04:39:11.002Z,9.00
2019-04-28T04:46:37.702Z,9.40
2019-04-28T04:51:33.765Z,9.60
2019-04-28T04:54:01.614Z,9.60
2019-04-28T04:56:30.244Z,9.70
2019-04-28T05:01:47.304Z,9.80
2019-04-28T05:04:35.498Z,9.80
2019-04-28T05:07:04.475Z,9.90
2019-04-28T05:09:32.254Z,9.90
2019-04-28T05:12:00.272Z,9.80
2019-04-28T05:14:29.910Z,9.90
2019-04-28T05:17:20.429Z,10.10
2019-04-28T05:24:15.285Z,10.20
2019-04-28T05:35:22.046Z,10.40
2019-04-28T05:53:59.516Z,11.00
2019-04-28T05:56:51.913Z,11.20
2019-04-28T06:00:29.595Z,11.50
2019-04-28T06:03:14.173Z,11.80
2019-04-28T06:06:03.657Z,12.00
2019-04-28T06:08:59.797Z,11.50
2019-04-28T06:11:31.170Z,12.00
2019-04-28T06:14:50.327Z,12.10
2019-04-28T06:17:20.435Z,12.20
2019-04-28T06:19:50.353Z,12.10
2019-04-28T06:22:37.722Z,12.20
2019-04-28T06:25:06.078Z,12.30
2019-04-28T06:27:34.092Z,12.30
2019-04-28T06:30:09.561Z,12.60
2019-04-28T06:32:37.668Z,12.90
2019-04-28T06:35:08.264Z,13.00
2019-04-28T06:37:38.137Z,13.00
2019-04-28T06:40:06.228Z,13.00
2019-04-28T06:42:34.291Z,13.00
2019-04-28T06:45:02.253Z,13.00
2019-04-28T06:47:34.769Z,13.30
2019-04-28T06:50:02.725Z,13.10
2019-04-28T06:52:30.676Z,13.10
2019-04-28T06:54:58.577Z,13.30
2019-04-28T06:57:26.392Z,13.40
2019-04-28T06:59:54.392Z,13.50
2019-04-28T07:02:22.031Z,13.70
2019-04-28T07:05:01.266Z,13.90
2019-04-28T07:07:19.420Z,13.80
2019-04-28T07:09:47.401Z,13.90
2019-04-28T07:12:15.489Z,13.80
2019-04-28T07:15:08.518Z,13.50
2019-04-28T07:17:57.798Z,13.40
2019-04-28T07:21:25.134Z,13.40
2019-04-28T07:23:54.000Z,13.30
2019-04-28T07:26:22.194Z,13.20
2019-04-28T07:28:56.851Z,13.40
2019-04-28T07:31:48.937Z,13.40
2019-04-28T07:34:18.235Z,13.30
2019-04-28T07:36:46.494Z,13.40
2019-04-28T07:39:19.577Z,14.20
2019-04-28T07:41:47.462Z,13.40
2019-04-28T07:46:45.495Z,13.60
2019-04-28T07:49:13.170Z,13.60
2019-04-28T07:51:53.778Z,13.60
2019-04-28T07:54:21.756Z,13.40
2019-04-28T07:56:49.330Z,13.40
2019-04-28T07:59:16.958Z,13.40
2019-04-28T08:01:44.816Z,13.40
2019-04-28T08:04:12.500Z,13.40
2019-04-28T08:06:40.569Z,13.50
2019-04-28T08:09:16.780Z,13.60
2019-04-28T08:11:44.938Z,13.60
2019-04-28T08:14:12.741Z,13.70
2019-04-28T08:16:40.437Z,13.80
2019-04-28T08:19:08.145Z,14.00
2019-04-28T08:21:35.718Z,13.90
2019-04-28T08:24:03.503Z,13.90
2019-04-28T08:26:31.312Z,13.90
2019-04-28T08:28:59.604Z,13.90
2019-04-28T08:31:34.928Z,13.70
2019-04-28T08:34:07.267Z,13.50
2019-04-28T08:36:36.314Z,13.50
2019-04-28T08:39:05.956Z,13.50
2019-04-28T08:41:33.608Z,13.60
2019-04-28T08:44:01.194Z,13.80
2019-04-28T08:46:28.748Z,14.00
2019-04-28T08:48:56.268Z,14.20
2019-04-28T08:51:24.101Z,14.40
2019-04-28T08:53:51.599Z,14.90
2019-04-28T08:56:19.197Z,15.20
2019-04-28T08:58:46.773Z,15.20
2019-04-28T09:01:14.369Z,15.30
2019-04-28T09:03:41.878Z,15.20
2019-04-28T09:06:09.403Z,16.00
2019-04-28T09:08:36.965Z,16.00
2019-04-28T09:11:04.553Z,16.00
2019-04-28T09:13:32.221Z,16.00
2019-04-28T09:15:59.759Z,16.40
2019-04-28T09:18:27.314Z,16.60
2019-04-28T09:20:54.850Z,16.50
2019-04-28T09:23:22.449Z,16.90
2019-04-28T09:25:50.012Z,16.80
2019-04-28T09:28:17.541Z,17.30
2019-04-28T09:30:45.115Z,17.20
2019-04-28T09:33:12.681Z,16.80
2019-04-28T09:35:40.208Z,16.60
2019-04-28T09:38:07.771Z,16.70
2019-04-28T09:40:35.342Z,16.70
2019-04-28T09:43:14.748Z,16.50
2019-04-28T09:46:02.958Z,17.10
2019-04-28T09:48:30.514Z,17.10
2019-04-28T09:50:58.098Z,17.20
2019-04-28T09:53:25.703Z,17.70
2019-04-28T09:55:53.328Z,17.50
2019-04-28T09:58:20.937Z,18.30
2019-04-28T10:00:48.503Z,17.70
2019-04-28T10:03:16.113Z,17.40
2019-04-28T10:05:43.916Z,17.40
2019-04-28T10:08:11.501Z,17.40
2019-04-28T10:10:39.101Z,17.30
2019-04-28T10:13:06.754Z,17.50
2019-04-28T10:15:34.368Z,17.70
2019-04-28T10:18:02.018Z,17.70
2019-04-28T10:20:29.563Z,17.50
2019-04-28T10:22:58.063Z,17.30
2019-04-28T10:25:25.924Z,17.30
2019-04-28T10:27:53.637Z,17.00
2019-04-28T10:30:21.253Z,17.30
2019-04-28T10:32:48.946Z,17.40
2019-04-28T10:35:16.727Z,17.10
2019-04-28T10:37:45.655Z,17.00
2019-04-28T10:40:32.296Z,17.10
2019-04-28T10:42:59.886Z,16.80
2019-04-28T10:45:29.303Z,16.70
2019-04-28T10:47:57.130Z,16.80
2019-04-28T10:50:24.738Z,17.00
2019-04-28T10:52:52.357Z,16.90
2019-04-28T10:55:19.961Z,16.80
2019-04-28T10:57:47.621Z,16.80
2019-04-28T11:05:18.243Z,16.80
2019-04-28T11:07:45.872Z,17.20
2019-04-28T11:10:16.228Z,17.10
2019-04-28T11:12:44.048Z,17.10
2019-04-28T11:15:31.522Z,17.20
2019-04-28T11:17:59.251Z,17.20
2019-04-28T11:20:26.920Z,17.20
2019-04-28T11:22:54.534Z,17.30
2019-04-28T11:25:22.230Z,17.20
2019-04-28T11:27:49.842Z,17.20
2019-04-28T11:30:18.308Z,17.10
2019-04-28T11:33:05.379Z,17.00
2019-04-28T11:35:33.229Z,17.00
2019-04-28T11:38:00.836Z,17.60
2019-04-28T11:40:28.615Z,17.80
2019-04-28T11:42:57.204Z,17.70
2019-04-28T11:45:25.893Z,17.60
2019-04-28T11:47:53.478Z,17.80
2019-04-28T11:50:21.178Z,17.70
2019-04-28T11:55:39.324Z,17.80
2019-04-28T11:58:07.113Z,17.60
2019-04-28T12:00:45.602Z,17.70
2019-04-28T12:03:13.686Z,18.10
2019-04-28T12:05:50.333Z,18.40
2019-04-28T12:08:42.674Z,18.20
2019-04-28T12:11:32.310Z,17.90
2019-04-28T12:14:08.100Z,18.00
2019-04-28T12:17:06.189Z,18.20
2019-04-28T12:19:56.193Z,18.10
2019-04-28T12:22:23.914Z,18.00
2019-04-28T12:24:51.574Z,18.10
2019-04-28T12:27:19.218Z,18.40
2019-04-28T12:29:47.164Z,18.30
2019-04-28T12:32:14.818Z,18.50
2019-04-28T12:34:42.426Z,18.70
2019-04-28T12:37:10.109Z,18.20
2019-04-28T12:39:37.900Z,18.00
2019-04-28T12:42:05.688Z,17.90
2019-04-28T12:44:33.222Z,18.10
2019-04-28T12:47:00.813Z,18.10
2019-04-28T12:49:38.013Z,18.60
2019-04-28T12:52:06.343Z,18.80
2019-04-28T12:54:35.900Z,19.00
2019-04-28T12:57:03.687Z,18.80
2019-04-28T12:59:38.273Z,19.00
2019-04-28T13:02:27.965Z,19.20
2019-04-28T13:04:58.403Z,19.50
2019-04-28T13:07:26.069Z,19.40
2019-04-28T13:09:53.907Z,19.20
2019-04-28T13:12:21.568Z,19.10
2019-04-28T13:14:49.208Z,19.10
2019-04-28T13:17:16.897Z,19.00
2019-04-28T13:19:44.497Z,19.10
2019-04-28T13:22:12.097Z,19.00
2019-04-28T13:24:39.692Z,18.70
2019-04-28T13:27:09.969Z,18.40
2019-04-28T13:29:36.754Z,18.20
2019-04-28T13:32:04.393Z,18.30
2019-04-28T13:34:33.748Z,18.60
2019-04-28T13:37:01.354Z,18.70
2019-04-28T13:39:34.870Z,19.00
2019-04-28T13:42:02.674Z,19.60
2019-04-28T13:44:48.291Z,20.20
2019-04-28T13:47:15.920Z,20.60
2019-04-28T13:49:49.718Z,21.20
2019-04-28T13:52:17.345Z,21.50
2019-04-28T13:54:46.005Z,21.60
2019-04-28T13:57:13.611Z,21.10
2019-04-28T13:59:41.210Z,21.10
2019-04-28T14:02:17.298Z,19.70
2019-04-28T14:05:04.534Z,19.30
2019-04-28T14:07:32.101Z,19.20
2019-04-28T14:09:59.840Z,19.40
2019-04-28T14:12:27.380Z,19.40
2019-04-28T14:14:54.973Z,19.70
2019-04-28T14:17:22.634Z,19.70
2019-04-28T14:19:50.257Z,19.90
2019-04-28T14:22:18.171Z,20.20
2019-04-28T14:24:45.824Z,20.20
2019-04-28T14:27:13.505Z,20.80
2019-04-28T14:29:41.142Z,20.30
2019-04-28T14:32:08.870Z,19.90
2019-04-28T14:34:36.575Z,19.10
2019-04-28T14:37:04.125Z,19.50
2019-04-28T14:39:31.764Z,19.40
2019-04-28T14:41:59.358Z,19.40
2019-04-28T14:44:27.018Z,19.20
2019-04-28T14:46:54.690Z,19.30
2019-04-28T14:49:22.285Z,18.90
2019-04-28T14:51:49.953Z,18.80
2019-04-28T14:54:17.609Z,18.40
2019-04-28T14:56:45.216Z,18.50
2019-04-28T14:59:12.838Z,18.40
2019-04-28T15:02:09.377Z,18.10
2019-04-28T15:04:54.878Z,17.90
2019-04-28T15:08:00.033Z,18.00
2019-04-28T15:10:45.575Z,18.00
2019-04-28T15:13:13.391Z,18.30
2019-04-28T15:15:41.076Z,18.30
2019-04-28T15:18:08.764Z,18.10
2019-04-28T15:20:36.385Z,18.40
2019-04-28T15:23:04.017Z,18.20
2019-04-28T15:25:31.585Z,18.30
2019-04-28T15:27:59.202Z,18.20
2019-04-28T15:30:26.825Z,18.40
2019-04-28T15:32:54.546Z,18.50
2019-04-28T15:35:22.250Z,18.30
2019-04-28T15:37:49.906Z,17.70
2019-04-28T15:40:17.472Z,17.50
2019-04-28T15:42:45.081Z,17.20
2019-04-28T15:45:12.724Z,17.20
2019-04-28T15:47:40.332Z,16.90
2019-04-28T15:50:08.150Z,16.90
2019-04-28T15:53:03.175Z,16.40
2019-04-28T15:55:48.642Z,16.40
2019-04-28T15:58:32.471Z,17.20
2019-04-28T16:01:00.155Z,16.00
2019-04-28T16:03:27.766Z,16.00
2019-04-28T16:05:55.382Z,15.90
2019-04-28T16:08:23.035Z,15.60
2019-04-28T16:10:50.673Z,15.60
2019-04-28T16:13:18.266Z,15.50
2019-04-28T16:15:45.902Z,15.50
2019-04-28T16:18:13.451Z,15.50
2019-04-28T16:20:41.040Z,15.40
2019-04-28T16:23:09.265Z,15.30
2019-04-28T16:25:37.170Z,15.20
2019-04-28T16:28:04.737Z,15.30
2019-04-28T16:30:32.443Z,15.10
2019-04-28T16:33:01.138Z,15.00
2019-04-28T16:35:29.010Z,15.00
2019-04-28T16:37:56.577Z,14.80
2019-04-28T16:40:34.534Z,14.70
2019-04-28T16:43:12.557Z,14.70
2019-04-28T16:45:40.106Z,14.50
2019-04-28T16:48:07.799Z,14.50
2019-04-28T16:50:35.445Z,14.50
2019-04-28T16:53:03.013Z,14.40
2019-04-28T16:55:52.951Z,14.50
2019-04-28T16:58:42.714Z,14.40
2019-04-28T17:01:38.523Z,14.40
2019-04-28T17:04:06.221Z,14.40
2019-04-28T17:06:33.853Z,14.40
2019-04-28T17:09:01.649Z,14.30
2019-04-28T17:11:29.397Z,14.40
2019-04-28T17:13:56.999Z,14.30
2019-04-28T17:16:24.668Z,14.30
2019-04-28T17:18:52.255Z,14.20
2019-04-28T17:21:20.028Z,14.30
2019-04-28T17:23:47.664Z,14.10
2019-04-28T17:26:15.371Z,14.10
2019-04-28T17:28:42.975Z,14.10
2019-04-28T17:31:11.152Z,14.10
2019-04-28T17:33:38.739Z,14.10
2019-04-28T17:36:06.394Z,14.10
2019-04-28T17:38:33.971Z,14.10
2019-04-28T17:41:01.596Z,14.10
2019-04-28T17:43:29.165Z,14.10
2019-04-28T17:45:56.718Z,14.10
2019-04-28T17:48:29.717Z,14.00
2019-04-28T17:50:57.266Z,14.00
2019-04-28T17:53:24.852Z,13.90
2019-04-28T17:55:52.451Z,13.70
2019-04-28T17:58:20.023Z,13.70
2019-04-28T18:01:15.775Z,13.70
2019-04-28T18:03:59.221Z,13.70
2019-04-28T18:06:27.951Z,13.60
2019-04-28T18:08:55.572Z,13.50
2019-04-28T18:11:23.130Z,13.50
2019-04-28T18:13:50.689Z,13.40
2019-04-28T18:16:41.217Z,13.30
2019-04-28T18:19:10.472Z,13.20
2019-04-28T18:21:37.993Z,13.20
2019-04-28T18:24:05.568Z,13.20
2019-04-28T18:26:33.109Z,13.10
2019-04-28T18:29:00.665Z,13.10
2019-04-28T18:32:06.564Z,13.10
2019-04-28T18:34:43.493Z,13.00
2019-04-28T18:37:30.538Z,13.00
2019-04-28T18:40:11.546Z,12.90
2019-04-28T18:43:01.606Z,12.80
2019-04-28T18:45:29.162Z,12.80
2019-04-28T18:47:56.738Z,12.70
2019-04-28T18:50:25.225Z,12.70
2019-04-28T18:52:52.785Z,12.70
2019-04-28T18:55:20.530Z,12.70
2019-04-28T18:57:48.074Z,12.50
2019-04-28T19:00:17.136Z,12.50
2019-04-28T19:02:45.788Z,12.40
2019-04-28T19:08:06.432Z,12.30
2019-04-28T19:10:47.974Z,12.30
2019-04-28T19:13:19.666Z,12.20
2019-04-28T19:16:06.686Z,12.20
2019-04-28T19:18:36.994Z,12.10
2019-04-28T19:21:04.706Z,12.10
2019-04-28T19:23:32.426Z,12.10
2019-04-28T19:26:00.170Z,12.00
2019-04-28T19:28:27.739Z,11.90
2019-04-28T19:30:55.543Z,11.90
2019-04-28T19:33:26.198Z,11.90
2019-04-28T19:35:53.812Z,12.00
2019-04-28T19:38:21.648Z,11.90
2019-04-28T19:40:49.223Z,11.90
2019-04-28T19:43:16.808Z,11.80
2019-04-28T19:45:47.300Z,11.90
2019-04-28T19:48:14.905Z,11.90
2019-04-28T19:50:42.511Z,11.80
2019-04-28T19:53:10.240Z,11.80
2019-04-28T19:55:45.307Z,11.80
2019-04-28T19:58:25.656Z,11.70
2019-04-28T20:01:15.757Z,11.70
2019-04-28T20:03:43.383Z,11.70
2019-04-28T20:06:11.057Z,11.50
2019-04-28T20:08:38.584Z,11.60
2019-04-28T20:11:06.160Z,11.60
2019-04-28T20:13:33.804Z,11.60
2019-04-28T20:16:01.446Z,11.60
2019-04-28T20:18:29.615Z,11.50
2019-04-28T20:20:57.338Z,11.50
2019-04-28T20:23:24.871Z,11.50
2019-04-28T20:26:19.866Z,11.50
2019-04-28T20:28:47.490Z,11.50
2019-04-28T20:31:14.992Z,11.40
2019-04-28T20:33:42.637Z,11.40
2019-04-28T20:36:32.721Z,11.30
2019-04-28T20:39:03.562Z,11.30
2019-04-28T20:41:42.807Z,11.20
2019-04-28T20:44:10.380Z,11.20
2019-04-28T20:46:37.931Z,11.10
2019-04-28T20:49:05.501Z,11.00
2019-04-28T20:51:33.119Z,11.00
2019-04-28T20:54:00.818Z,11.10
2019-04-28T20:56:28.425Z,11.00
2019-04-28T20:58:55.988Z,10.80
2019-04-28T21:01:23.849Z,10.80
2019-04-28T21:03:51.517Z,10.70
2019-04-28T21:06:20.223Z,10.60
2019-04-28T21:08:47.840Z,10.50
2019-04-28T21:11:16.339Z,10.50
2019-04-28T21:13:44.315Z,10.40
2019-04-28T21:16:11.927Z,10.40
2019-04-28T21:18:39.505Z,10.30
2019-04-28T21:21:07.097Z,10.30
2019-04-28T21:23:34.739Z,10.20
2019-04-28T21:26:02.322Z,10.20
2019-04-28T21:30:57.454Z,10.20
2019-04-28T21:33:25.225Z,10.30
2019-04-28T21:35:52.817Z,10.20
2019-04-28T21:38:20.428Z,10.30
2019-04-28T21:40:48.119Z,10.30
2019-04-28T21:43:38.229Z,10.40
2019-04-28T21:46:16.034Z,10.50
2019-04-28T21:48:46.079Z,10.40
2019-04-28T21:51:13.744Z,10.20
2019-04-28T21:53:41.524Z,10.30
2019-04-28T21:56:09.109Z,10.20
2019-04-28T21:58:36.653Z,10.20
2019-04-28T22:01:05.748Z,10.30
2019-04-28T22:03:33.352Z,10.40
2019-04-28T22:06:00.947Z,10.10
2019-04-28T22:08:28.533Z,10.00
2019-04-28T22:10:56.167Z,9.80
2019-04-28T22:13:23.760Z,10.10
2019-04-28T22:15:51.333Z,9.90
2019-04-28T22:18:18.995Z,9.80
2019-04-28T22:20:46.590Z,9.70
2019-04-28T22:23:20.288Z,9.80
2019-04-28T22:25:47.905Z,9.60
2019-04-28T22:28:15.543Z,9.60
2019-04-28T22:30:45.109Z,9.50
2019-04-28T22:33:12.770Z,9.40
2019-04-28T22:35:40.372Z,9.30
2019-04-28T22:38:08.001Z,9.30
2019-04-28T22:40:35.526Z,9.20
2019-04-28T22:43:03.561Z,9.20
2019-04-28T22:45:31.112Z,9.20
2019-04-28T22:47:58.668Z,9.10
2019-04-28T22:50:39.546Z,9.10
2019-04-28T22:53:07.211Z,9.10
2019-04-28T22:55:39.143Z,9.10
2019-04-28T22:58:32.300Z,9.00
2019-04-28T23:01:07.682Z,8.90
2019-04-28T23:03:50.589Z,10.60
2019-04-28T23:06:18.223Z,8.70
2019-04-28T23:08:45.778Z,8.50
2019-04-28T23:11:13.387Z,8.40
2019-04-28T23:13:41.135Z,8.30
2019-04-28T23:16:08.688Z,8.10
2019-04-28T23:18:36.264Z,7.90
2019-04-28T23:21:10.039Z,7.80
2019-04-28T23:23:38.018Z,7.70
2019-04-28T23:26:05.576Z,7.70
2019-04-28T23:28:33.228Z,7.50
2019-04-28T23:31:00.890Z,7.50
2019-04-28T23:33:28.530Z,7.40
2019-04-28T23:35:56.080Z,7.20
2019-04-28T23:38:23.604Z,7.10
2019-04-28T23:41:09.548Z,6.90
2019-04-28T23:43:37.118Z,7.00
2019-04-28T23:46:04.690Z,6.90
2019-04-28T23:48:32.247Z,6.80
2019-04-28T23:51:09.740Z,6.80
2019-04-28T23:53:57.960Z,6.60
2019-04-28T23:56:25.515Z,6.50
2019-04-28T23:58:53.079Z,6.20
